sensor_id;sensor_type;location;lat;lon;timestamp;temperature;humidity
21861;DHT22;11095;48.066;8.540;2023-07-31T00:01:48;12.10;99.90
21861;DHT22;11095;48.066;8.540;2023-07-31T00:04:13;12.10;99.90
21861;DHT22;11095;48.066;8.540;2023-07-31T00:06:39;12.10;99.90
21861;DHT22;11095;48.066;8.540;2023-07-31T00:09:05;12.10;99.90
21861;DHT22;11095;48.066;8.540;2023-07-31T00:11:30;12.10;99.90
21861;DHT22;11095;48.066;8.540;2023-07-31T00:13:56;12.10;99.90
21861;DHT22;11095;48.066;8.540;2023-07-31T00:16:21;12.10;99.90
21861;DHT22;11095;48.066;8.540;2023-07-31T00:18:47;12.00;99.90
21861;DHT22;11095;48.066;8.540;2023-07-31T00:21:12;12.00;99.90
21861;DHT22;11095;48.066;8.540;2023-07-31T00:23:38;12.00;99.90
21861;DHT22;11095;48.066;8.540;2023-07-31T00:26:03;12.00;99.90
21861;DHT22;11095;48.066;8.540;2023-07-31T00:28:29;11.90;99.90
21861;DHT22;11095;48.066;8.540;2023-07-31T00:30:54;11.90;99.90
21861;DHT22;11095;48.066;8.540;2023-07-31T00:33:20;11.90;99.90
21861;DHT22;11095;48.066;8.540;2023-07-31T00:35:46;11.90;99.90
21861;DHT22;11095;48.066;8.540;2023-07-31T00:38:11;11.80;99.90
21861;DHT22;11095;48.066;8.540;2023-07-31T00:40:37;11.80;99.90
21861;DHT22;11095;48.066;8.540;2023-07-31T00:43:03;11.70;99.90
21861;DHT22;11095;48.066;8.540;2023-07-31T00:45:29;11.70;99.90
21861;DHT22;11095;48.066;8.540;2023-07-31T00:47:55;11.70;99.90
21861;DHT22;11095;48.066;8.540;2023-07-31T00:50:23;11.70;99.90
21861;DHT22;11095;48.066;8.540;2023-07-31T00:52:49;11.60;99.90
21861;DHT22;11095;48.066;8.540;2023-07-31T00:55:15;11.60;99.90
21861;DHT22;11095;48.066;8.540;2023-07-31T00:57:41;11.50;99.90
21861;DHT22;11095;48.066;8.540;2023-07-31T01:00:07;11.50;99.90
21861;DHT22;11095;48.066;8.540;2023-07-31T01:02:33;11.50;99.90
21861;DHT22;11095;48.066;8.540;2023-07-31T01:05:00;11.50;99.90
21861;DHT22;11095;48.066;8.540;2023-07-31T01:07:39;11.40;99.90
21861;DHT22;11095;48.066;8.540;2023-07-31T01:10:20;11.40;99.90
21861;DHT22;11095;48.066;8.540;2023-07-31T01:12:48;11.40;99.90
21861;DHT22;11095;48.066;8.540;2023-07-31T01:15:13;11.40;99.90
21861;DHT22;11095;48.066;8.540;2023-07-31T01:17:42;11.30;99.90
21861;DHT22;11095;48.066;8.540;2023-07-31T01:20:22;11.30;99.90
21861;DHT22;11095;48.066;8.540;2023-07-31T01:29:01;11.30;99.90
21861;DHT22;11095;48.066;8.540;2023-07-31T01:31:29;11.30;99.90
21861;DHT22;11095;48.066;8.540;2023-07-31T01:33:58;11.20;99.90
21861;DHT22;11095;48.066;8.540;2023-07-31T01:36:25;11.20;99.90
21861;DHT22;11095;48.066;8.540;2023-07-31T01:38:51;11.20;99.90
21861;DHT22;11095;48.066;8.540;2023-07-31T01:41:17;11.10;99.90
21861;DHT22;11095;48.066;8.540;2023-07-31T01:43:44;11.10;99.90
21861;DHT22;11095;48.066;8.540;2023-07-31T01:46:09;11.10;99.90
21861;DHT22;11095;48.066;8.540;2023-07-31T01:48:35;11.10;99.90
21861;DHT22;11095;48.066;8.540;2023-07-31T01:51:02;11.00;99.90
21861;DHT22;11095;48.066;8.540;2023-07-31T01:53:29;11.00;99.90
21861;DHT22;11095;48.066;8.540;2023-07-31T01:55:55;11.00;99.90
21861;DHT22;11095;48.066;8.540;2023-07-31T01:58:20;11.00;99.90
21861;DHT22;11095;48.066;8.540;2023-07-31T02:00:46;10.90;99.90
21861;DHT22;11095;48.066;8.540;2023-07-31T02:03:12;10.90;99.90
21861;DHT22;11095;48.066;8.540;2023-07-31T02:05:47;10.90;99.90
21861;DHT22;11095;48.066;8.540;2023-07-31T02:08:13;10.90;99.90
21861;DHT22;11095;48.066;8.540;2023-07-31T02:10:38;10.80;99.90
21861;DHT22;11095;48.066;8.540;2023-07-31T02:13:04;10.80;99.90
21861;DHT22;11095;48.066;8.540;2023-07-31T02:15:30;10.80;99.90
21861;DHT22;11095;48.066;8.540;2023-07-31T02:17:56;10.70;99.90
21861;DHT22;11095;48.066;8.540;2023-07-31T02:20:21;10.70;99.90
21861;DHT22;11095;48.066;8.540;2023-07-31T02:22:47;10.70;99.90
21861;DHT22;11095;48.066;8.540;2023-07-31T02:25:13;10.70;99.90
21861;DHT22;11095;48.066;8.540;2023-07-31T02:27:38;10.70;99.90
21861;DHT22;11095;48.066;8.540;2023-07-31T02:30:04;10.60;99.90
21861;DHT22;11095;48.066;8.540;2023-07-31T02:32:30;10.60;99.90
21861;DHT22;11095;48.066;8.540;2023-07-31T02:34:55;10.60;99.90
21861;DHT22;11095;48.066;8.540;2023-07-31T02:37:21;10.60;99.90
21861;DHT22;11095;48.066;8.540;2023-07-31T02:39:47;10.60;99.90
21861;DHT22;11095;48.066;8.540;2023-07-31T02:42:13;10.60;99.90
21861;DHT22;11095;48.066;8.540;2023-07-31T02:44:39;10.60;99.90
21861;DHT22;11095;48.066;8.540;2023-07-31T02:47:04;10.50;99.90
21861;DHT22;11095;48.066;8.540;2023-07-31T02:49:30;10.50;99.90
21861;DHT22;11095;48.066;8.540;2023-07-31T02:51:55;10.50;99.90
21861;DHT22;11095;48.066;8.540;2023-07-31T02:54:21;10.40;99.90
21861;DHT22;11095;48.066;8.540;2023-07-31T02:56:47;10.40;99.90
21861;DHT22;11095;48.066;8.540;2023-07-31T02:59:13;10.40;99.90
21861;DHT22;11095;48.066;8.540;2023-07-31T03:01:38;10.40;99.90
21861;DHT22;11095;48.066;8.540;2023-07-31T03:04:04;10.40;99.90
21861;DHT22;11095;48.066;8.540;2023-07-31T03:06:30;10.30;99.90
21861;DHT22;11095;48.066;8.540;2023-07-31T03:08:55;10.30;99.90
21861;DHT22;11095;48.066;8.540;2023-07-31T03:11:21;10.30;99.90
21861;DHT22;11095;48.066;8.540;2023-07-31T03:13:46;10.20;99.90
21861;DHT22;11095;48.066;8.540;2023-07-31T03:16:12;10.20;99.90
21861;DHT22;11095;48.066;8.540;2023-07-31T03:18:37;10.20;99.90
21861;DHT22;11095;48.066;8.540;2023-07-31T03:21:04;10.20;99.90
21861;DHT22;11095;48.066;8.540;2023-07-31T03:23:29;10.20;99.90
21861;DHT22;11095;48.066;8.540;2023-07-31T03:25:59;10.10;99.90
21861;DHT22;11095;48.066;8.540;2023-07-31T03:28:25;10.10;99.90
21861;DHT22;11095;48.066;8.540;2023-07-31T03:30:51;10.10;99.90
21861;DHT22;11095;48.066;8.540;2023-07-31T03:33:17;10.10;99.90
21861;DHT22;11095;48.066;8.540;2023-07-31T03:35:43;10.10;99.90
21861;DHT22;11095;48.066;8.540;2023-07-31T03:38:08;10.10;99.90
21861;DHT22;11095;48.066;8.540;2023-07-31T03:40:34;10.10;99.90
21861;DHT22;11095;48.066;8.540;2023-07-31T03:42:59;10.10;99.90
21861;DHT22;11095;48.066;8.540;2023-07-31T03:45:25;10.10;99.90
21861;DHT22;11095;48.066;8.540;2023-07-31T03:47:50;10.10;99.90
21861;DHT22;11095;48.066;8.540;2023-07-31T03:50:16;10.10;99.90
21861;DHT22;11095;48.066;8.540;2023-07-31T03:52:42;10.10;99.90
21861;DHT22;11095;48.066;8.540;2023-07-31T03:55:07;10.00;99.90
21861;DHT22;11095;48.066;8.540;2023-07-31T03:57:33;10.00;99.90
21861;DHT22;11095;48.066;8.540;2023-07-31T03:59:59;10.00;99.90
21861;DHT22;11095;48.066;8.540;2023-07-31T04:02:24;10.00;99.90
21861;DHT22;11095;48.066;8.540;2023-07-31T04:04:50;10.00;99.90
21861;DHT22;11095;48.066;8.540;2023-07-31T04:07:16;10.10;99.90
21861;DHT22;11095;48.066;8.540;2023-07-31T04:09:41;10.10;99.90
21861;DHT22;11095;48.066;8.540;2023-07-31T04:12:07;10.20;99.90
21861;DHT22;11095;48.066;8.540;2023-07-31T04:14:32;10.30;99.90
21861;DHT22;11095;48.066;8.540;2023-07-31T04:16:58;10.50;99.90
21861;DHT22;11095;48.066;8.540;2023-07-31T04:19:24;10.80;99.90
21861;DHT22;11095;48.066;8.540;2023-07-31T04:21:49;11.10;99.90
21861;DHT22;11095;48.066;8.540;2023-07-31T04:24:15;11.30;99.90
21861;DHT22;11095;48.066;8.540;2023-07-31T04:26:41;11.60;99.90
21861;DHT22;11095;48.066;8.540;2023-07-31T04:29:06;11.70;99.90
21861;DHT22;11095;48.066;8.540;2023-07-31T04:31:33;11.90;99.90
21861;DHT22;11095;48.066;8.540;2023-07-31T04:33:58;12.00;99.90
21861;DHT22;11095;48.066;8.540;2023-07-31T04:36:24;12.10;99.90
21861;DHT22;11095;48.066;8.540;2023-07-31T04:38:50;12.10;99.90
21861;DHT22;11095;48.066;8.540;2023-07-31T04:41:15;12.20;99.90
21861;DHT22;11095;48.066;8.540;2023-07-31T04:43:41;12.30;99.90
21861;DHT22;11095;48.066;8.540;2023-07-31T04:46:06;12.60;99.90
21861;DHT22;11095;48.066;8.540;2023-07-31T04:48:32;12.90;99.90
21861;DHT22;11095;48.066;8.540;2023-07-31T04:50:57;13.20;99.90
21861;DHT22;11095;48.066;8.540;2023-07-31T04:53:23;13.40;99.90
21861;DHT22;11095;48.066;8.540;2023-07-31T04:55:49;13.50;99.90
21861;DHT22;11095;48.066;8.540;2023-07-31T04:58:14;13.50;99.90
21861;DHT22;11095;48.066;8.540;2023-07-31T05:00:40;13.70;99.90
21861;DHT22;11095;48.066;8.540;2023-07-31T05:03:05;13.80;99.90
21861;DHT22;11095;48.066;8.540;2023-07-31T05:05:32;13.90;99.90
21861;DHT22;11095;48.066;8.540;2023-07-31T05:07:58;14.00;99.90
21861;DHT22;11095;48.066;8.540;2023-07-31T05:10:23;14.10;99.90
21861;DHT22;11095;48.066;8.540;2023-07-31T05:12:49;14.20;99.90
21861;DHT22;11095;48.066;8.540;2023-07-31T05:15:14;14.10;99.90
21861;DHT22;11095;48.066;8.540;2023-07-31T05:17:40;14.00;99.90
21861;DHT22;11095;48.066;8.540;2023-07-31T05:20:06;13.90;99.90
21861;DHT22;11095;48.066;8.540;2023-07-31T05:22:32;13.80;99.90
21861;DHT22;11095;48.066;8.540;2023-07-31T05:24:57;13.70;99.90
21861;DHT22;11095;48.066;8.540;2023-07-31T05:27:23;13.60;99.90
21861;DHT22;11095;48.066;8.540;2023-07-31T05:29:48;13.50;99.90
21861;DHT22;11095;48.066;8.540;2023-07-31T05:32:14;13.40;99.90
21861;DHT22;11095;48.066;8.540;2023-07-31T05:34:40;13.30;99.90
21861;DHT22;11095;48.066;8.540;2023-07-31T05:37:05;13.30;99.90
21861;DHT22;11095;48.066;8.540;2023-07-31T05:39:31;13.20;99.90
21861;DHT22;11095;48.066;8.540;2023-07-31T05:41:57;13.20;99.90
21861;DHT22;11095;48.066;8.540;2023-07-31T05:44:22;13.20;99.90
21861;DHT22;11095;48.066;8.540;2023-07-31T05:46:48;13.30;99.90
21861;DHT22;11095;48.066;8.540;2023-07-31T05:49:14;13.30;99.90
21861;DHT22;11095;48.066;8.540;2023-07-31T05:51:39;13.40;99.90
21861;DHT22;11095;48.066;8.540;2023-07-31T05:54:05;13.40;99.90
21861;DHT22;11095;48.066;8.540;2023-07-31T05:56:30;13.40;99.90
21861;DHT22;11095;48.066;8.540;2023-07-31T05:58:57;13.50;99.90
21861;DHT22;11095;48.066;8.540;2023-07-31T06:01:22;13.60;99.90
21861;DHT22;11095;48.066;8.540;2023-07-31T06:03:48;13.70;99.90
21861;DHT22;11095;48.066;8.540;2023-07-31T06:06:13;13.70;99.90
21861;DHT22;11095;48.066;8.540;2023-07-31T06:08:39;13.80;99.90
21861;DHT22;11095;48.066;8.540;2023-07-31T06:11:05;13.80;99.90
21861;DHT22;11095;48.066;8.540;2023-07-31T06:13:31;13.90;99.90
21861;DHT22;11095;48.066;8.540;2023-07-31T06:15:57;13.90;99.90
21861;DHT22;11095;48.066;8.540;2023-07-31T06:18:22;13.90;99.90
21861;DHT22;11095;48.066;8.540;2023-07-31T06:20:48;14.00;99.90
21861;DHT22;11095;48.066;8.540;2023-07-31T06:23:19;14.00;99.90
21861;DHT22;11095;48.066;8.540;2023-07-31T06:25:44;14.00;99.90
21861;DHT22;11095;48.066;8.540;2023-07-31T06:28:10;14.10;99.90
21861;DHT22;11095;48.066;8.540;2023-07-31T06:30:36;14.20;99.90
21861;DHT22;11095;48.066;8.540;2023-07-31T06:33:01;14.20;99.90
21861;DHT22;11095;48.066;8.540;2023-07-31T06:35:27;14.30;99.90
21861;DHT22;11095;48.066;8.540;2023-07-31T06:37:52;14.40;99.90
21861;DHT22;11095;48.066;8.540;2023-07-31T06:40:18;14.50;99.90
21861;DHT22;11095;48.066;8.540;2023-07-31T06:42:44;14.70;99.90
21861;DHT22;11095;48.066;8.540;2023-07-31T06:45:10;14.90;99.90
21861;DHT22;11095;48.066;8.540;2023-07-31T06:47:36;15.10;99.90
21861;DHT22;11095;48.066;8.540;2023-07-31T06:50:01;15.20;99.90
21861;DHT22;11095;48.066;8.540;2023-07-31T06:52:27;15.40;99.90
21861;DHT22;11095;48.066;8.540;2023-07-31T06:55:28;15.90;99.90
21861;DHT22;11095;48.066;8.540;2023-07-31T06:57:55;17.20;99.90
21861;DHT22;11095;48.066;8.540;2023-07-31T07:00:22;18.90;99.90
21861;DHT22;11095;48.066;8.540;2023-07-31T07:02:48;20.70;99.90
21861;DHT22;11095;48.066;8.540;2023-07-31T07:05:15;21.70;99.90
21861;DHT22;11095;48.066;8.540;2023-07-31T07:07:41;21.90;99.90
21861;DHT22;11095;48.066;8.540;2023-07-31T07:10:07;21.60;99.90
21861;DHT22;11095;48.066;8.540;2023-07-31T07:12:33;21.20;99.90
21861;DHT22;11095;48.066;8.540;2023-07-31T07:14:59;20.60;99.90
21861;DHT22;11095;48.066;8.540;2023-07-31T07:17:26;20.10;99.90
21861;DHT22;11095;48.066;8.540;2023-07-31T07:19:53;19.80;99.90
21861;DHT22;11095;48.066;8.540;2023-07-31T07:22:18;19.40;99.90
21861;DHT22;11095;48.066;8.540;2023-07-31T07:24:44;19.30;99.90
21861;DHT22;11095;48.066;8.540;2023-07-31T07:27:10;19.10;99.90
21861;DHT22;11095;48.066;8.540;2023-07-31T07:29:35;19.10;99.90
21861;DHT22;11095;48.066;8.540;2023-07-31T07:32:01;19.10;99.90
21861;DHT22;11095;48.066;8.540;2023-07-31T07:34:27;18.80;99.90
21861;DHT22;11095;48.066;8.540;2023-07-31T07:36:54;18.90;99.90
21861;DHT22;11095;48.066;8.540;2023-07-31T07:39:19;19.10;99.90
21861;DHT22;11095;48.066;8.540;2023-07-31T07:41:46;19.40;99.90
21861;DHT22;11095;48.066;8.540;2023-07-31T07:44:12;19.50;99.90
21861;DHT22;11095;48.066;8.540;2023-07-31T07:46:38;19.60;99.90
21861;DHT22;11095;48.066;8.540;2023-07-31T07:49:04;19.60;99.90
21861;DHT22;11095;48.066;8.540;2023-07-31T07:51:29;20.00;99.90
21861;DHT22;11095;48.066;8.540;2023-07-31T07:53:59;21.00;99.90
21861;DHT22;11095;48.066;8.540;2023-07-31T07:56:26;22.30;99.90
21861;DHT22;11095;48.066;8.540;2023-07-31T07:58:52;23.80;99.90
21861;DHT22;11095;48.066;8.540;2023-07-31T08:01:18;25.10;99.90
21861;DHT22;11095;48.066;8.540;2023-07-31T08:03:43;25.70;99.90
21861;DHT22;11095;48.066;8.540;2023-07-31T08:06:09;26.70;99.90
21861;DHT22;11095;48.066;8.540;2023-07-31T08:08:36;27.90;99.90
21861;DHT22;11095;48.066;8.540;2023-07-31T08:11:02;28.70;99.90
21861;DHT22;11095;48.066;8.540;2023-07-31T08:13:27;29.20;99.90
21861;DHT22;11095;48.066;8.540;2023-07-31T08:15:53;29.80;99.70
21861;DHT22;11095;48.066;8.540;2023-07-31T08:18:19;30.10;98.30
21861;DHT22;11095;48.066;8.540;2023-07-31T08:20:45;30.90;96.20
21861;DHT22;11095;48.066;8.540;2023-07-31T08:23:11;31.50;95.00
21861;DHT22;11095;48.066;8.540;2023-07-31T08:25:37;32.00;92.20
21861;DHT22;11095;48.066;8.540;2023-07-31T08:28:03;31.60;91.00
21861;DHT22;11095;48.066;8.540;2023-07-31T08:30:29;31.00;90.80
21861;DHT22;11095;48.066;8.540;2023-07-31T08:32:55;29.60;91.30
21861;DHT22;11095;48.066;8.540;2023-07-31T08:35:21;28.40;91.60
21861;DHT22;11095;48.066;8.540;2023-07-31T08:37:47;27.10;93.90
21861;DHT22;11095;48.066;8.540;2023-07-31T08:40:13;26.30;94.60
21861;DHT22;11095;48.066;8.540;2023-07-31T08:42:49;26.20;95.60
21861;DHT22;11095;48.066;8.540;2023-07-31T08:45:19;27.20;95.10
21861;DHT22;11095;48.066;8.540;2023-07-31T08:47:46;28.70;94.00
21861;DHT22;11095;48.066;8.540;2023-07-31T08:50:19;30.00;91.80
21861;DHT22;11095;48.066;8.540;2023-07-31T08:52:46;30.50;89.90
21861;DHT22;11095;48.066;8.540;2023-07-31T08:55:12;30.60;89.30
21861;DHT22;11095;48.066;8.540;2023-07-31T08:57:38;30.90;89.00
21861;DHT22;11095;48.066;8.540;2023-07-31T09:00:05;31.00;85.40
21861;DHT22;11095;48.066;8.540;2023-07-31T09:02:36;31.10;86.30
21861;DHT22;11095;48.066;8.540;2023-07-31T09:05:04;31.50;84.50
21861;DHT22;11095;48.066;8.540;2023-07-31T09:07:31;32.10;83.70
21861;DHT22;11095;48.066;8.540;2023-07-31T09:09:58;32.00;81.50
21861;DHT22;11095;48.066;8.540;2023-07-31T09:12:25;32.00;81.70
21861;DHT22;11095;48.066;8.540;2023-07-31T09:14:50;31.80;80.00
21861;DHT22;11095;48.066;8.540;2023-07-31T09:17:16;31.70;80.00
21861;DHT22;11095;48.066;8.540;2023-07-31T09:19:53;31.60;79.80
21861;DHT22;11095;48.066;8.540;2023-07-31T09:22:31;31.80;78.30
21861;DHT22;11095;48.066;8.540;2023-07-31T09:25:13;32.00;76.90
21861;DHT22;11095;48.066;8.540;2023-07-31T09:27:46;31.30;78.40
21861;DHT22;11095;48.066;8.540;2023-07-31T09:30:13;31.00;79.00
21861;DHT22;11095;48.066;8.540;2023-07-31T09:32:38;30.80;78.60
21861;DHT22;11095;48.066;8.540;2023-07-31T09:35:22;30.60;80.20
21861;DHT22;11095;48.066;8.540;2023-07-31T09:37:56;30.60;79.90
21861;DHT22;11095;48.066;8.540;2023-07-31T09:40:42;30.60;79.40
21861;DHT22;11095;48.066;8.540;2023-07-31T09:43:11;31.00;79.40
21861;DHT22;11095;48.066;8.540;2023-07-31T09:45:41;31.00;78.80
21861;DHT22;11095;48.066;8.540;2023-07-31T09:48:09;30.80;78.90
21861;DHT22;11095;48.066;8.540;2023-07-31T09:50:37;30.10;79.40
21861;DHT22;11095;48.066;8.540;2023-07-31T09:53:04;29.20;80.20
21861;DHT22;11095;48.066;8.540;2023-07-31T09:55:30;28.80;81.90
21861;DHT22;11095;48.066;8.540;2023-07-31T09:57:57;28.50;83.20
21861;DHT22;11095;48.066;8.540;2023-07-31T10:00:23;27.90;84.60
21861;DHT22;11095;48.066;8.540;2023-07-31T10:02:51;28.00;87.10
21861;DHT22;11095;48.066;8.540;2023-07-31T10:05:17;28.50;86.10
21861;DHT22;11095;48.066;8.540;2023-07-31T10:07:54;29.20;84.30
21861;DHT22;11095;48.066;8.540;2023-07-31T10:10:21;29.70;83.00
21861;DHT22;11095;48.066;8.540;2023-07-31T10:12:48;30.20;81.40
21861;DHT22;11095;48.066;8.540;2023-07-31T10:15:16;30.40;81.20
21861;DHT22;11095;48.066;8.540;2023-07-31T10:17:41;30.60;82.00
21861;DHT22;11095;48.066;8.540;2023-07-31T10:20:07;30.70;79.60
21861;DHT22;11095;48.066;8.540;2023-07-31T10:22:34;30.60;80.70
21861;DHT22;11095;48.066;8.540;2023-07-31T10:25:01;30.30;81.00
21861;DHT22;11095;48.066;8.540;2023-07-31T10:27:27;30.00;82.50
21861;DHT22;11095;48.066;8.540;2023-07-31T10:29:54;29.90;81.30
21861;DHT22;11095;48.066;8.540;2023-07-31T10:32:20;29.30;81.10
21861;DHT22;11095;48.066;8.540;2023-07-31T10:34:48;29.20;82.50
21861;DHT22;11095;48.066;8.540;2023-07-31T10:37:28;29.00;82.10
21861;DHT22;11095;48.066;8.540;2023-07-31T10:42:31;28.70;82.90
21861;DHT22;11095;48.066;8.540;2023-07-31T10:45:08;28.70;84.70
21861;DHT22;11095;48.066;8.540;2023-07-31T10:47:43;28.40;84.90
21861;DHT22;11095;48.066;8.540;2023-07-31T10:50:22;28.40;83.40
21861;DHT22;11095;48.066;8.540;2023-07-31T10:52:51;28.00;86.00
21861;DHT22;11095;48.066;8.540;2023-07-31T10:58:01;28.00;87.80
21861;DHT22;11095;48.066;8.540;2023-07-31T11:00:30;28.20;89.10
21861;DHT22;11095;48.066;8.540;2023-07-31T11:03:06;28.40;87.30
21861;DHT22;11095;48.066;8.540;2023-07-31T11:05:52;28.50;85.70
21861;DHT22;11095;48.066;8.540;2023-07-31T11:08:28;28.10;85.90
21861;DHT22;11095;48.066;8.540;2023-07-31T11:11:10;27.50;87.40
21861;DHT22;11095;48.066;8.540;2023-07-31T11:13:48;26.10;89.70
21861;DHT22;11095;48.066;8.540;2023-07-31T11:16:19;25.30;91.20
21861;DHT22;11095;48.066;8.540;2023-07-31T11:18:46;24.90;91.50
21861;DHT22;11095;48.066;8.540;2023-07-31T11:21:14;24.60;93.20
21861;DHT22;11095;48.066;8.540;2023-07-31T11:23:41;24.90;93.30
21861;DHT22;11095;48.066;8.540;2023-07-31T11:26:07;25.10;92.00
21861;DHT22;11095;48.066;8.540;2023-07-31T11:28:33;25.40;92.70
21861;DHT22;11095;48.066;8.540;2023-07-31T11:31:00;25.80;93.10
21861;DHT22;11095;48.066;8.540;2023-07-31T11:33:26;26.00;92.00
21861;DHT22;11095;48.066;8.540;2023-07-31T11:35:52;26.20;91.20
21861;DHT22;11095;48.066;8.540;2023-07-31T11:40:48;26.40;90.50
21861;DHT22;11095;48.066;8.540;2023-07-31T11:43:14;26.70;87.40
21861;DHT22;11095;48.066;8.540;2023-07-31T11:45:46;26.80;87.50
21861;DHT22;11095;48.066;8.540;2023-07-31T11:48:19;27.00;86.70
21861;DHT22;11095;48.066;8.540;2023-07-31T11:50:45;27.00;84.80
21861;DHT22;11095;48.066;8.540;2023-07-31T11:53:12;27.00;84.50
21861;DHT22;11095;48.066;8.540;2023-07-31T11:55:38;27.00;85.80
21861;DHT22;11095;48.066;8.540;2023-07-31T11:58:04;27.10;85.30
21861;DHT22;11095;48.066;8.540;2023-07-31T12:00:30;27.00;85.20
21861;DHT22;11095;48.066;8.540;2023-07-31T12:02:56;27.20;86.10
21861;DHT22;11095;48.066;8.540;2023-07-31T12:05:22;27.20;86.10
21861;DHT22;11095;48.066;8.540;2023-07-31T12:07:53;27.20;85.20
21861;DHT22;11095;48.066;8.540;2023-07-31T12:10:30;27.20;84.50
21861;DHT22;11095;48.066;8.540;2023-07-31T12:15:31;27.10;84.60
21861;DHT22;11095;48.066;8.540;2023-07-31T12:17:57;27.10;83.70
21861;DHT22;11095;48.066;8.540;2023-07-31T12:20:23;27.00;85.30
21861;DHT22;11095;48.066;8.540;2023-07-31T12:22:49;27.00;86.10
21861;DHT22;11095;48.066;8.540;2023-07-31T12:25:17;26.80;85.70
21861;DHT22;11095;48.066;8.540;2023-07-31T12:27:46;26.70;86.20
21861;DHT22;11095;48.066;8.540;2023-07-31T12:30:32;26.50;86.20
21861;DHT22;11095;48.066;8.540;2023-07-31T12:33:13;26.50;86.70
21861;DHT22;11095;48.066;8.540;2023-07-31T12:35:45;26.70;86.10
21861;DHT22;11095;48.066;8.540;2023-07-31T12:38:12;26.70;85.80
21861;DHT22;11095;48.066;8.540;2023-07-31T12:40:38;26.70;86.10
21861;DHT22;11095;48.066;8.540;2023-07-31T12:43:05;26.70;85.60
21861;DHT22;11095;48.066;8.540;2023-07-31T12:45:31;26.70;85.40
21861;DHT22;11095;48.066;8.540;2023-07-31T12:47:58;26.50;86.90
21861;DHT22;11095;48.066;8.540;2023-07-31T12:50:24;26.30;88.70
21861;DHT22;11095;48.066;8.540;2023-07-31T12:52:49;26.30;90.40
21861;DHT22;11095;48.066;8.540;2023-07-31T12:55:15;26.50;89.60
21861;DHT22;11095;48.066;8.540;2023-07-31T12:57:40;26.60;87.90
21861;DHT22;11095;48.066;8.540;2023-07-31T13:00:07;26.60;88.00
21861;DHT22;11095;48.066;8.540;2023-07-31T13:02:33;26.60;89.10
21861;DHT22;11095;48.066;8.540;2023-07-31T13:04:59;26.60;88.80
21861;DHT22;11095;48.066;8.540;2023-07-31T13:07:24;26.70;89.90
21861;DHT22;11095;48.066;8.540;2023-07-31T13:09:51;26.90;89.90
21861;DHT22;11095;48.066;8.540;2023-07-31T13:12:16;27.30;88.90
21861;DHT22;11095;48.066;8.540;2023-07-31T13:14:42;27.30;86.90
21861;DHT22;11095;48.066;8.540;2023-07-31T13:17:07;27.40;86.40
21861;DHT22;11095;48.066;8.540;2023-07-31T13:19:33;27.20;87.40
21861;DHT22;11095;48.066;8.540;2023-07-31T13:21:58;27.20;87.30
21861;DHT22;11095;48.066;8.540;2023-07-31T13:24:24;27.20;87.30
21861;DHT22;11095;48.066;8.540;2023-07-31T13:26:49;27.10;87.80
21861;DHT22;11095;48.066;8.540;2023-07-31T13:29:15;27.20;87.00
21861;DHT22;11095;48.066;8.540;2023-07-31T13:31:40;27.20;87.00
21861;DHT22;11095;48.066;8.540;2023-07-31T13:34:06;27.40;88.20
21861;DHT22;11095;48.066;8.540;2023-07-31T13:36:31;27.50;86.40
21861;DHT22;11095;48.066;8.540;2023-07-31T13:38:59;27.50;84.60
21861;DHT22;11095;48.066;8.540;2023-07-31T13:41:25;27.50;84.00
21861;DHT22;11095;48.066;8.540;2023-07-31T13:43:50;27.20;84.20
21861;DHT22;11095;48.066;8.540;2023-07-31T13:46:16;27.10;83.50
21861;DHT22;11095;48.066;8.540;2023-07-31T13:48:41;27.00;83.30
21861;DHT22;11095;48.066;8.540;2023-07-31T13:51:07;27.10;82.80
21861;DHT22;11095;48.066;8.540;2023-07-31T13:53:33;27.20;82.80
21861;DHT22;11095;48.066;8.540;2023-07-31T13:55:58;27.30;80.80
21861;DHT22;11095;48.066;8.540;2023-07-31T13:58:24;27.10;82.20
21861;DHT22;11095;48.066;8.540;2023-07-31T14:00:49;26.90;82.70
21861;DHT22;11095;48.066;8.540;2023-07-31T14:03:15;26.60;83.70
21861;DHT22;11095;48.066;8.540;2023-07-31T14:05:40;26.40;84.80
21861;DHT22;11095;48.066;8.540;2023-07-31T14:08:06;26.30;85.90
21861;DHT22;11095;48.066;8.540;2023-07-31T14:10:31;26.20;85.00
21861;DHT22;11095;48.066;8.540;2023-07-31T14:12:57;26.10;85.30
21861;DHT22;11095;48.066;8.540;2023-07-31T14:15:22;26.00;86.70
21861;DHT22;11095;48.066;8.540;2023-07-31T14:17:48;26.20;86.50
21861;DHT22;11095;48.066;8.540;2023-07-31T14:20:13;26.30;85.30
21861;DHT22;11095;48.066;8.540;2023-07-31T14:22:39;26.60;85.70
21861;DHT22;11095;48.066;8.540;2023-07-31T14:25:05;26.70;84.80
21861;DHT22;11095;48.066;8.540;2023-07-31T14:27:30;26.80;85.30
21861;DHT22;11095;48.066;8.540;2023-07-31T14:29:56;26.70;84.20
21861;DHT22;11095;48.066;8.540;2023-07-31T14:32:22;26.60;84.40
21861;DHT22;11095;48.066;8.540;2023-07-31T14:34:51;26.50;84.50
21861;DHT22;11095;48.066;8.540;2023-07-31T14:37:17;26.40;85.90
21861;DHT22;11095;48.066;8.540;2023-07-31T14:39:42;26.30;86.90
21861;DHT22;11095;48.066;8.540;2023-07-31T14:42:11;26.30;86.80
21861;DHT22;11095;48.066;8.540;2023-07-31T14:44:36;26.10;87.70
21861;DHT22;11095;48.066;8.540;2023-07-31T14:47:02;26.00;87.60
21861;DHT22;11095;48.066;8.540;2023-07-31T14:49:27;26.00;87.70
21861;DHT22;11095;48.066;8.540;2023-07-31T14:51:54;26.10;87.60
21861;DHT22;11095;48.066;8.540;2023-07-31T14:54:19;26.10;87.00
21861;DHT22;11095;48.066;8.540;2023-07-31T14:56:45;25.90;87.20
21861;DHT22;11095;48.066;8.540;2023-07-31T14:59:10;25.70;87.60
21861;DHT22;11095;48.066;8.540;2023-07-31T15:01:37;25.70;87.60
21861;DHT22;11095;48.066;8.540;2023-07-31T15:04:02;25.60;87.90
21861;DHT22;11095;48.066;8.540;2023-07-31T15:06:28;25.60;87.60
21861;DHT22;11095;48.066;8.540;2023-07-31T15:08:54;25.50;87.90
21861;DHT22;11095;48.066;8.540;2023-07-31T15:11:19;25.60;88.00
21861;DHT22;11095;48.066;8.540;2023-07-31T15:13:45;25.50;88.80
21861;DHT22;11095;48.066;8.540;2023-07-31T15:16:10;25.60;89.30
21861;DHT22;11095;48.066;8.540;2023-07-31T15:18:36;25.60;89.90
21861;DHT22;11095;48.066;8.540;2023-07-31T15:21:01;25.60;89.10
21861;DHT22;11095;48.066;8.540;2023-07-31T15:23:27;25.70;90.00
21861;DHT22;11095;48.066;8.540;2023-07-31T15:25:53;25.80;89.60
21861;DHT22;11095;48.066;8.540;2023-07-31T15:28:19;25.80;90.50
21861;DHT22;11095;48.066;8.540;2023-07-31T15:30:44;25.90;90.10
21861;DHT22;11095;48.066;8.540;2023-07-31T15:33:10;25.70;89.80
21861;DHT22;11095;48.066;8.540;2023-07-31T15:35:35;25.70;89.90
21861;DHT22;11095;48.066;8.540;2023-07-31T15:38:01;25.50;89.50
21861;DHT22;11095;48.066;8.540;2023-07-31T15:40:27;25.40;90.30
21861;DHT22;11095;48.066;8.540;2023-07-31T15:42:52;25.40;90.10
21861;DHT22;11095;48.066;8.540;2023-07-31T15:45:18;25.50;89.40